sensor_id;sensor_type;location;lat;lon;timestamp;P1;durP1;ratioP1;P2;durP2;ratioP2
50225;SDS011;36113;50.742;6.432;2022-07-22T00:02:06;17.47;;;14.17;;
50225;SDS011;36113;50.742;6.432;2022-07-22T00:04:32;16.07;;;13.40;;
50225;SDS011;36113;50.742;6.432;2022-07-22T00:06:57;18.13;;;13.70;;
50225;SDS011;36113;50.742;6.432;2022-07-22T00:09:23;22.23;;;13.70;;
50225;SDS011;36113;50.742;6.432;2022-07-22T00:11:48;16.17;;;14.47;;
50225;SDS011;36113;50.742;6.432;2022-07-22T00:14:14;18.67;;;14.63;;
50225;SDS011;36113;50.742;6.432;2022-07-22T00:16:39;18.60;;;13.80;;
50225;SDS011;36113;50.742;6.432;2022-07-22T00:19:05;18.20;;;13.17;;
50225;SDS011;36113;50.742;6.432;2022-07-22T00:21:31;14.93;;;13.37;;
50225;SDS011;36113;50.742;6.432;2022-07-22T00:23:56;20.90;;;13.70;;
50225;SDS011;36113;50.742;6.432;2022-07-22T00:26:21;13.23;;;11.83;;
50225;SDS011;36113;50.742;6.432;2022-07-22T00:28:47;14.80;;;10.90;;
50225;SDS011;36113;50.742;6.432;2022-07-22T00:31:12;18.27;;;11.27;;
50225;SDS011;36113;50.742;6.432;2022-07-22T00:33:37;17.27;;;10.20;;
50225;SDS011;36113;50.742;6.432;2022-07-22T00:36:03;12.90;;;10.83;;
50225;SDS011;36113;50.742;6.432;2022-07-22T00:38:28;12.73;;;8.87;;
50225;SDS011;36113;50.742;6.432;2022-07-22T00:40:54;10.57;;;9.23;;
50225;SDS011;36113;50.742;6.432;2022-07-22T00:43:19;10.20;;;8.43;;
50225;SDS011;36113;50.742;6.432;2022-07-22T00:45:44;16.83;;;10.23;;
50225;SDS011;36113;50.742;6.432;2022-07-22T00:48:10;10.13;;;8.57;;
50225;SDS011;36113;50.742;6.432;2022-07-22T00:50:35;12.53;;;8.87;;
50225;SDS011;36113;50.742;6.432;2022-07-22T00:53:01;13.93;;;8.30;;
50225;SDS011;36113;50.742;6.432;2022-07-22T00:55:27;12.50;;;9.83;;
50225;SDS011;36113;50.742;6.432;2022-07-22T00:57:52;12.07;;;9.27;;
50225;SDS011;36113;50.742;6.432;2022-07-22T01:00:20;10.70;;;8.73;;
50225;SDS011;36113;50.742;6.432;2022-07-22T01:02:46;14.07;;;10.05;;
50225;SDS011;36113;50.742;6.432;2022-07-22T01:05:11;17.60;;;10.27;;
50225;SDS011;36113;50.742;6.432;2022-07-22T01:07:38;13.33;;;9.07;;
50225;SDS011;36113;50.742;6.432;2022-07-22T01:10:04;10.20;;;9.20;;
50225;SDS011;36113;50.742;6.432;2022-07-22T01:12:30;13.68;;;9.43;;
50225;SDS011;36113;50.742;6.432;2022-07-22T01:14:56;12.20;;;9.17;;
50225;SDS011;36113;50.742;6.432;2022-07-22T01:17:21;11.60;;;9.17;;
50225;SDS011;36113;50.742;6.432;2022-07-22T01:19:47;12.63;;;9.63;;
50225;SDS011;36113;50.742;6.432;2022-07-22T01:22:12;13.63;;;9.97;;
50225;SDS011;36113;50.742;6.432;2022-07-22T01:24:38;14.10;;;10.27;;
50225;SDS011;36113;50.742;6.432;2022-07-22T01:27:03;12.20;;;9.27;;
50225;SDS011;36113;50.742;6.432;2022-07-22T01:29:28;20.13;;;9.70;;
50225;SDS011;36113;50.742;6.432;2022-07-22T01:31:54;16.17;;;9.17;;
50225;SDS011;36113;50.742;6.432;2022-07-22T01:34:19;12.43;;;9.33;;
50225;SDS011;36113;50.742;6.432;2022-07-22T01:36:45;16.47;;;9.10;;
50225;SDS011;36113;50.742;6.432;2022-07-22T01:39:10;13.30;;;9.77;;
50225;SDS011;36113;50.742;6.432;2022-07-22T01:41:36;14.25;;;9.60;;
50225;SDS011;36113;50.742;6.432;2022-07-22T01:44:02;14.00;;;8.90;;
50225;SDS011;36113;50.742;6.432;2022-07-22T01:46:27;20.13;;;9.20;;
50225;SDS011;36113;50.742;6.432;2022-07-22T01:48:53;15.07;;;10.80;;
50225;SDS011;36113;50.742;6.432;2022-07-22T01:51:19;15.00;;;9.87;;
50225;SDS011;36113;50.742;6.432;2022-07-22T01:53:44;17.70;;;10.43;;
50225;SDS011;36113;50.742;6.432;2022-07-22T01:56:10;15.33;;;9.23;;
50225;SDS011;36113;50.742;6.432;2022-07-22T01:58:36;14.50;;;9.27;;
50225;SDS011;36113;50.742;6.432;2022-07-22T02:01:01;11.70;;;8.57;;
50225;SDS011;36113;50.742;6.432;2022-07-22T02:03:26;13.03;;;9.30;;
50225;SDS011;36113;50.742;6.432;2022-07-22T02:05:52;13.70;;;9.40;;
50225;SDS011;36113;50.742;6.432;2022-07-22T02:08:17;18.67;;;9.43;;
50225;SDS011;36113;50.742;6.432;2022-07-22T02:10:43;13.03;;;8.13;;
50225;SDS011;36113;50.742;6.432;2022-07-22T02:13:08;13.50;;;8.70;;
50225;SDS011;36113;50.742;6.432;2022-07-22T02:15:34;12.77;;;9.37;;
50225;SDS011;36113;50.742;6.432;2022-07-22T02:18:00;10.77;;;8.10;;
50225;SDS011;36113;50.742;6.432;2022-07-22T02:20:33;15.60;;;8.27;;
50225;SDS011;36113;50.742;6.432;2022-07-22T02:22:59;8.90;;;7.37;;
50225;SDS011;36113;50.742;6.432;2022-07-22T02:25:24;7.80;;;6.90;;
50225;SDS011;36113;50.742;6.432;2022-07-22T02:27:49;9.93;;;6.23;;
50225;SDS011;36113;50.742;6.432;2022-07-22T02:30:15;8.73;;;7.03;;
50225;SDS011;36113;50.742;6.432;2022-07-22T02:32:40;12.30;;;6.80;;
50225;SDS011;36113;50.742;6.432;2022-07-22T02:35:06;9.43;;;6.50;;
50225;SDS011;36113;50.742;6.432;2022-07-22T02:37:32;6.75;;;5.55;;
50225;SDS011;36113;50.742;6.432;2022-07-22T02:39:57;12.03;;;5.67;;
50225;SDS011;36113;50.742;6.432;2022-07-22T02:42:22;6.07;;;5.37;;
50225;SDS011;36113;50.742;6.432;2022-07-22T02:44:48;8.50;;;6.67;;
50225;SDS011;36113;50.742;6.432;2022-07-22T02:47:13;8.53;;;5.37;;
50225;SDS011;36113;50.742;6.432;2022-07-22T02:49:38;7.27;;;5.60;;
50225;SDS011;36113;50.742;6.432;2022-07-22T02:52:04;10.70;;;5.53;;
50225;SDS011;36113;50.742;6.432;2022-07-22T02:54:29;6.00;;;5.50;;
50225;SDS011;36113;50.742;6.432;2022-07-22T02:56:54;6.27;;;4.30;;
50225;SDS011;36113;50.742;6.432;2022-07-22T02:59:20;7.73;;;4.33;;
50225;SDS011;36113;50.742;6.432;2022-07-22T03:01:45;8.33;;;4.80;;
50225;SDS011;36113;50.742;6.432;2022-07-22T03:04:11;6.63;;;4.80;;
50225;SDS011;36113;50.742;6.432;2022-07-22T03:06:36;5.47;;;4.60;;
50225;SDS011;36113;50.742;6.432;2022-07-22T03:09:02;5.33;;;4.83;;
50225;SDS011;36113;50.742;6.432;2022-07-22T03:11:29;5.53;;;4.90;;
50225;SDS011;36113;50.742;6.432;2022-07-22T03:13:54;6.03;;;4.60;;
50225;SDS011;36113;50.742;6.432;2022-07-22T03:16:20;7.73;;;4.37;;
50225;SDS011;36113;50.742;6.432;2022-07-22T03:18:45;7.70;;;4.83;;
50225;SDS011;36113;50.742;6.432;2022-07-22T03:21:10;4.70;;;4.13;;
50225;SDS011;36113;50.742;6.432;2022-07-22T03:23:36;8.03;;;4.70;;
50225;SDS011;36113;50.742;6.432;2022-07-22T03:26:01;7.73;;;4.73;;
50225;SDS011;36113;50.742;6.432;2022-07-22T03:28:27;7.70;;;5.00;;
50225;SDS011;36113;50.742;6.432;2022-07-22T03:30:52;6.40;;;4.43;;
50225;SDS011;36113;50.742;6.432;2022-07-22T03:33:18;7.87;;;4.40;;
50225;SDS011;36113;50.742;6.432;2022-07-22T03:35:43;7.80;;;4.33;;
50225;SDS011;36113;50.742;6.432;2022-07-22T03:38:08;5.93;;;5.00;;
50225;SDS011;36113;50.742;6.432;2022-07-22T03:40:34;7.23;;;4.13;;
50225;SDS011;36113;50.742;6.432;2022-07-22T03:42:59;6.47;;;4.43;;
50225;SDS011;36113;50.742;6.432;2022-07-22T03:45:25;6.03;;;4.97;;
50225;SDS011;36113;50.742;6.432;2022-07-22T03:47:50;5.13;;;4.63;;
50225;SDS011;36113;50.742;6.432;2022-07-22T03:50:16;5.37;;;4.40;;
50225;SDS011;36113;50.742;6.432;2022-07-22T03:52:41;9.07;;;4.23;;
50225;SDS011;36113;50.742;6.432;2022-07-22T03:55:06;6.30;;;3.87;;
50225;SDS011;36113;50.742;6.432;2022-07-22T03:57:32;4.90;;;4.30;;
50225;SDS011;36113;50.742;6.432;2022-07-22T03:59:57;6.73;;;4.67;;
50225;SDS011;36113;50.742;6.432;2022-07-22T04:02:23;5.73;;;5.23;;
50225;SDS011;36113;50.742;6.432;2022-07-22T04:04:48;6.13;;;4.93;;
50225;SDS011;36113;50.742;6.432;2022-07-22T04:07:13;9.80;;;5.23;;
50225;SDS011;36113;50.742;6.432;2022-07-22T04:09:39;8.10;;;5.57;;
50225;SDS011;36113;50.742;6.432;2022-07-22T04:12:04;6.17;;;4.70;;
50225;SDS011;36113;50.742;6.432;2022-07-22T04:14:30;6.10;;;5.20;;
50225;SDS011;36113;50.742;6.432;2022-07-22T04:16:55;8.37;;;5.07;;
50225;SDS011;36113;50.742;6.432;2022-07-22T04:19:20;4.83;;;4.13;;
50225;SDS011;36113;50.742;6.432;2022-07-22T04:21:46;5.83;;;4.40;;
50225;SDS011;36113;50.742;6.432;2022-07-22T04:24:11;6.57;;;4.83;;
50225;SDS011;36113;50.742;6.432;2022-07-22T04:26:37;6.90;;;4.20;;
50225;SDS011;36113;50.742;6.432;2022-07-22T04:29:03;8.27;;;5.20;;
50225;SDS011;36113;50.742;6.432;2022-07-22T04:31:28;9.38;;;5.65;;
50225;SDS011;36113;50.742;6.432;2022-07-22T04:33:54;6.73;;;5.27;;
50225;SDS011;36113;50.742;6.432;2022-07-22T04:36:19;7.53;;;5.23;;
50225;SDS011;36113;50.742;6.432;2022-07-22T04:38:45;6.17;;;5.00;;
50225;SDS011;36113;50.742;6.432;2022-07-22T04:41:10;5.70;;;4.70;;
50225;SDS011;36113;50.742;6.432;2022-07-22T04:43:35;5.13;;;4.70;;
50225;SDS011;36113;50.742;6.432;2022-07-22T04:46:01;6.43;;;5.10;;
50225;SDS011;36113;50.742;6.432;2022-07-22T04:48:26;5.87;;;5.07;;
50225;SDS011;36113;50.742;6.432;2022-07-22T04:50:51;12.40;;;6.63;;
50225;SDS011;36113;50.742;6.432;2022-07-22T04:53:17;10.70;;;6.53;;
50225;SDS011;36113;50.742;6.432;2022-07-22T04:55:42;7.67;;;6.10;;
50225;SDS011;36113;50.742;6.432;2022-07-22T04:58:08;12.10;;;6.47;;
50225;SDS011;36113;50.742;6.432;2022-07-22T05:00:33;8.43;;;5.83;;
50225;SDS011;36113;50.742;6.432;2022-07-22T05:02:58;7.87;;;6.47;;
50225;SDS011;36113;50.742;6.432;2022-07-22T05:05:24;9.83;;;6.80;;
50225;SDS011;36113;50.742;6.432;2022-07-22T05:07:49;10.97;;;6.63;;
50225;SDS011;36113;50.742;6.432;2022-07-22T05:10:15;7.73;;;6.47;;
50225;SDS011;36113;50.742;6.432;2022-07-22T05:12:40;9.27;;;7.10;;
50225;SDS011;36113;50.742;6.432;2022-07-22T05:15:06;9.40;;;6.87;;
50225;SDS011;36113;50.742;6.432;2022-07-22T05:17:32;12.83;;;7.00;;
50225;SDS011;36113;50.742;6.432;2022-07-22T05:19:57;9.90;;;7.63;;
50225;SDS011;36113;50.742;6.432;2022-07-22T05:22:22;9.70;;;7.47;;
50225;SDS011;36113;50.742;6.432;2022-07-22T05:24:48;11.53;;;7.00;;
50225;SDS011;36113;50.742;6.432;2022-07-22T05:27:13;10.30;;;7.43;;
50225;SDS011;36113;50.742;6.432;2022-07-22T05:29:38;12.00;;;7.90;;
50225;SDS011;36113;50.742;6.432;2022-07-22T05:32:04;9.50;;;7.60;;
50225;SDS011;36113;50.742;6.432;2022-07-22T05:34:29;12.40;;;7.37;;
50225;SDS011;36113;50.742;6.432;2022-07-22T05:36:55;13.87;;;7.83;;
50225;SDS011;36113;50.742;6.432;2022-07-22T05:39:20;10.50;;;7.97;;
50225;SDS011;36113;50.742;6.432;2022-07-22T05:41:45;12.43;;;8.27;;
50225;SDS011;36113;50.742;6.432;2022-07-22T05:44:11;9.80;;;7.43;;
50225;SDS011;36113;50.742;6.432;2022-07-22T05:46:36;11.00;;;7.40;;
50225;SDS011;36113;50.742;6.432;2022-07-22T05:49:01;17.63;;;7.50;;
50225;SDS011;36113;50.742;6.432;2022-07-22T05:51:27;12.30;;;7.13;;
50225;SDS011;36113;50.742;6.432;2022-07-22T05:53:53;7.87;;;6.10;;
50225;SDS011;36113;50.742;6.432;2022-07-22T05:56:18;10.57;;;6.50;;
50225;SDS011;36113;50.742;6.432;2022-07-22T05:58:43;17.87;;;6.87;;
50225;SDS011;36113;50.742;6.432;2022-07-22T06:01:09;11.87;;;8.23;;
50225;SDS011;36113;50.742;6.432;2022-07-22T06:03:35;12.82;;;7.63;;
50225;SDS011;36113;50.742;6.432;2022-07-22T06:06:01;12.67;;;7.67;;
50225;SDS011;36113;50.742;6.432;2022-07-22T06:08:29;8.30;;;7.05;;
50225;SDS011;36113;50.742;6.432;2022-07-22T06:10:56;15.47;;;8.87;;
50225;SDS011;36113;50.742;6.432;2022-07-22T06:13:22;14.10;;;8.10;;
50225;SDS011;36113;50.742;6.432;2022-07-22T06:15:47;9.67;;;7.50;;
50225;SDS011;36113;50.742;6.432;2022-07-22T06:18:13;15.53;;;8.13;;
50225;SDS011;36113;50.742;6.432;2022-07-22T06:20:38;10.80;;;9.13;;
50225;SDS011;36113;50.742;6.432;2022-07-22T06:23:03;11.73;;;8.67;;
50225;SDS011;36113;50.742;6.432;2022-07-22T06:25:29;13.00;;;10.00;;
50225;SDS011;36113;50.742;6.432;2022-07-22T06:27:54;19.53;;;11.70;;
50225;SDS011;36113;50.742;6.432;2022-07-22T06:30:19;19.07;;;13.20;;
50225;SDS011;36113;50.742;6.432;2022-07-22T06:32:45;19.83;;;12.83;;
50225;SDS011;36113;50.742;6.432;2022-07-22T06:35:10;13.87;;;11.07;;
50225;SDS011;36113;50.742;6.432;2022-07-22T06:37:36;11.33;;;10.13;;
50225;SDS011;36113;50.742;6.432;2022-07-22T06:40:01;13.03;;;9.97;;
50225;SDS011;36113;50.742;6.432;2022-07-22T06:42:27;10.93;;;9.27;;
50225;SDS011;36113;50.742;6.432;2022-07-22T06:44:52;13.93;;;9.13;;
50225;SDS011;36113;50.742;6.432;2022-07-22T06:47:18;10.13;;;8.43;;
50225;SDS011;36113;50.742;6.432;2022-07-22T06:49:43;11.33;;;7.30;;
50225;SDS011;36113;50.742;6.432;2022-07-22T06:52:11;12.57;;;7.13;;
50225;SDS011;36113;50.742;6.432;2022-07-22T06:54:37;10.10;;;7.57;;
50225;SDS011;36113;50.742;6.432;2022-07-22T06:57:02;10.87;;;8.10;;
50225;SDS011;36113;50.742;6.432;2022-07-22T06:59:28;10.57;;;8.63;;
50225;SDS011;36113;50.742;6.432;2022-07-22T07:01:53;10.57;;;8.20;;
50225;SDS011;36113;50.742;6.432;2022-07-22T07:04:18;8.90;;;8.00;;
50225;SDS011;36113;50.742;6.432;2022-07-22T07:06:44;8.07;;;7.03;;
50225;SDS011;36113;50.742;6.432;2022-07-22T07:09:10;13.10;;;6.78;;
50225;SDS011;36113;50.742;6.432;2022-07-22T07:11:35;7.23;;;6.53;;
50225;SDS011;36113;50.742;6.432;2022-07-22T07:14:01;8.37;;;7.53;;
50225;SDS011;36113;50.742;6.432;2022-07-22T07:16:26;10.93;;;7.80;;
50225;SDS011;36113;50.742;6.432;2022-07-22T07:18:52;8.97;;;7.93;;
50225;SDS011;36113;50.742;6.432;2022-07-22T07:21:17;11.93;;;10.10;;
50225;SDS011;36113;50.742;6.432;2022-07-22T07:23:43;13.37;;;10.20;;
50225;SDS011;36113;50.742;6.432;2022-07-22T07:26:08;12.93;;;11.63;;
50225;SDS011;36113;50.742;6.432;2022-07-22T07:28:33;13.07;;;10.90;;
50225;SDS011;36113;50.742;6.432;2022-07-22T07:30:59;12.03;;;10.73;;
50225;SDS011;36113;50.742;6.432;2022-07-22T07:33:24;11.07;;;9.90;;
50225;SDS011;36113;50.742;6.432;2022-07-22T07:35:50;13.73;;;10.80;;
50225;SDS011;36113;50.742;6.432;2022-07-22T07:38:15;10.27;;;9.27;;
50225;SDS011;36113;50.742;6.432;2022-07-22T07:40:41;11.67;;;10.23;;
50225;SDS011;36113;50.742;6.432;2022-07-22T07:43:06;11.07;;;9.93;;
50225;SDS011;36113;50.742;6.432;2022-07-22T07:45:32;11.17;;;9.83;;
50225;SDS011;36113;50.742;6.432;2022-07-22T07:47:57;11.23;;;10.17;;
50225;SDS011;36113;50.742;6.432;2022-07-22T07:50:23;10.77;;;9.67;;
50225;SDS011;36113;50.742;6.432;2022-07-22T07:52:49;9.70;;;8.80;;
50225;SDS011;36113;50.742;6.432;2022-07-22T07:55:16;11.23;;;10.05;;
50225;SDS011;36113;50.742;6.432;2022-07-22T07:57:41;10.93;;;9.50;;
50225;SDS011;36113;50.742;6.432;2022-07-22T08:00:09;14.10;;;11.60;;
50225;SDS011;36113;50.742;6.432;2022-07-22T08:02:35;11.60;;;9.93;;
50225;SDS011;36113;50.742;6.432;2022-07-22T08:05:00;13.00;;;10.77;;
50225;SDS011;36113;50.742;6.432;2022-07-22T08:07:26;14.57;;;11.00;;
50225;SDS011;36113;50.742;6.432;2022-07-22T08:09:53;12.13;;;10.33;;
50225;SDS011;36113;50.742;6.432;2022-07-22T08:14:44;14.70;;;10.90;;
50225;SDS011;36113;50.742;6.432;2022-07-22T08:17:10;13.30;;;10.10;;
50225;SDS011;36113;50.742;6.432;2022-07-22T08:19:35;13.07;;;9.77;;
50225;SDS011;36113;50.742;6.432;2022-07-22T08:22:00;10.83;;;9.03;;
50225;SDS011;36113;50.742;6.432;2022-07-22T08:24:26;14.43;;;8.83;;
50225;SDS011;36113;50.742;6.432;2022-07-22T08:26:51;14.93;;;10.97;;
50225;SDS011;36113;50.742;6.432;2022-07-22T08:29:16;16.80;;;12.73;;
50225;SDS011;36113;50.742;6.432;2022-07-22T08:31:42;17.17;;;12.27;;
50225;SDS011;36113;50.742;6.432;2022-07-22T08:34:07;17.23;;;12.90;;
50225;SDS011;36113;50.742;6.432;2022-07-22T08:36:33;14.97;;;12.10;;
50225;SDS011;36113;50.742;6.432;2022-07-22T08:38:58;15.50;;;11.77;;
50225;SDS011;36113;50.742;6.432;2022-07-22T08:41:24;16.90;;;10.97;;
50225;SDS011;36113;50.742;6.432;2022-07-22T08:43:50;14.10;;;11.40;;
50225;SDS011;36113;50.742;6.432;2022-07-22T08:46:16;13.40;;;10.63;;
50225;SDS011;36113;50.742;6.432;2022-07-22T08:48:42;15.20;;;11.77;;
50225;SDS011;36113;50.742;6.432;2022-07-22T08:51:07;17.73;;;12.03;;
50225;SDS011;36113;50.742;6.432;2022-07-22T08:53:33;13.80;;;10.97;;
50225;SDS011;36113;50.742;6.432;2022-07-22T08:55:58;15.57;;;10.67;;
50225;SDS011;36113;50.742;6.432;2022-07-22T08:58:24;13.97;;;10.63;;
50225;SDS011;36113;50.742;6.432;2022-07-22T09:03:34;16.50;;;11.13;;
50225;SDS011;36113;50.742;6.432;2022-07-22T09:06:10;13.65;;;10.15;;
50225;SDS011;36113;50.742;6.432;2022-07-22T09:08:54;13.32;;;10.35;;
50225;SDS011;36113;50.742;6.432;2022-07-22T09:11:22;14.07;;;11.15;;
50225;SDS011;36113;50.742;6.432;2022-07-22T09:13:49;16.63;;;10.93;;
50225;SDS011;36113;50.742;6.432;2022-07-22T09:16:14;16.83;;;11.73;;
50225;SDS011;36113;50.742;6.432;2022-07-22T09:21:15;18.45;;;13.25;;
50225;SDS011;36113;50.742;6.432;2022-07-22T09:23:42;19.33;;;12.43;;
50225;SDS011;36113;50.742;6.432;2022-07-22T09:26:08;19.37;;;13.63;;
50225;SDS011;36113;50.742;6.432;2022-07-22T09:28:54;16.17;;;13.07;;
50225;SDS011;36113;50.742;6.432;2022-07-22T09:31:28;20.33;;;13.68;;
50225;SDS011;36113;50.742;6.432;2022-07-22T09:34:00;20.95;;;14.73;;
50225;SDS011;36113;50.742;6.432;2022-07-22T09:36:26;21.73;;;13.30;;
50225;SDS011;36113;50.742;6.432;2022-07-22T09:38:51;22.27;;;14.27;;
50225;SDS011;36113;50.742;6.432;2022-07-22T09:41:17;17.03;;;13.87;;
50225;SDS011;36113;50.742;6.432;2022-07-22T09:43:42;17.47;;;13.87;;
50225;SDS011;36113;50.742;6.432;2022-07-22T09:46:09;17.67;;;13.53;;
50225;SDS011;36113;50.742;6.432;2022-07-22T09:48:35;20.70;;;15.05;;
50225;SDS011;36113;50.742;6.432;2022-07-22T09:51:02;21.80;;;16.05;;
50225;SDS011;36113;50.742;6.432;2022-07-22T09:53:29;23.50;;;15.98;;
50225;SDS011;36113;50.742;6.432;2022-07-22T09:55:56;22.15;;;14.98;;
50225;SDS011;36113;50.742;6.432;2022-07-22T09:58:26;21.05;;;13.90;;
50225;SDS011;36113;50.742;6.432;2022-07-22T10:03:23;19.08;;;13.23;;
50225;SDS011;36113;50.742;6.432;2022-07-22T10:05:51;18.70;;;14.05;;
50225;SDS011;36113;50.742;6.432;2022-07-22T10:08:17;23.58;;;14.95;;
50225;SDS011;36113;50.742;6.432;2022-07-22T10:10:44;20.23;;;14.43;;
50225;SDS011;36113;50.742;6.432;2022-07-22T10:13:09;21.33;;;14.73;;
50225;SDS011;36113;50.742;6.432;2022-07-22T10:15:35;18.03;;;14.67;;
50225;SDS011;36113;50.742;6.432;2022-07-22T10:18:06;19.38;;;14.15;;
50225;SDS011;36113;50.742;6.432;2022-07-22T10:20:33;21.58;;;13.95;;
50225;SDS011;36113;50.742;6.432;2022-07-22T10:25:30;20.58;;;13.57;;
50225;SDS011;36113;50.742;6.432;2022-07-22T10:27:58;20.00;;;14.63;;
50225;SDS011;36113;50.742;6.432;2022-07-22T10:30:27;22.30;;;14.50;;
50225;SDS011;36113;50.742;6.432;2022-07-22T10:33:02;20.25;;;14.60;;
50225;SDS011;36113;50.742;6.432;2022-07-22T10:35:37;20.50;;;13.95;;
50225;SDS011;36113;50.742;6.432;2022-07-22T10:38:23;22.93;;;14.70;;
50225;SDS011;36113;50.742;6.432;2022-07-22T10:43:17;19.13;;;13.70;;
50225;SDS011;36113;50.742;6.432;2022-07-22T10:48:11;18.60;;;13.93;;
50225;SDS011;36113;50.742;6.432;2022-07-22T10:50:41;19.20;;;13.25;;
50225;SDS011;36113;50.742;6.432;2022-07-22T10:53:09;21.27;;;13.70;;
50225;SDS011;36113;50.742;6.432;2022-07-22T10:55:37;22.42;;;14.73;;
50225;SDS011;36113;50.742;6.432;2022-07-22T11:00:56;22.58;;;14.32;;
50225;SDS011;36113;50.742;6.432;2022-07-22T11:03:24;20.20;;;13.95;;
50225;SDS011;36113;50.742;6.432;2022-07-22T11:05:50;21.02;;;14.82;;
50225;SDS011;36113;50.742;6.432;2022-07-22T11:08:16;21.57;;;14.07;;
50225;SDS011;36113;50.742;6.432;2022-07-22T11:10:46;19.33;;;14.18;;
50225;SDS011;36113;50.742;6.432;2022-07-22T11:13:13;19.17;;;13.00;;
50225;SDS011;36113;50.742;6.432;2022-07-22T11:15:38;21.33;;;13.07;;
50225;SDS011;36113;50.742;6.432;2022-07-22T11:18:03;22.63;;;14.07;;
50225;SDS011;36113;50.742;6.432;2022-07-22T11:20:29;25.17;;;14.73;;
50225;SDS011;36113;50.742;6.432;2022-07-22T11:22:54;21.60;;;14.37;;
50225;SDS011;36113;50.742;6.432;2022-07-22T11:25:20;19.42;;;12.90;;
50225;SDS011;36113;50.742;6.432;2022-07-22T11:27:51;22.00;;;13.00;;
50225;SDS011;36113;50.742;6.432;2022-07-22T11:30:22;20.77;;;12.80;;
50225;SDS011;36113;50.742;6.432;2022-07-22T11:32:48;21.43;;;14.53;;
50225;SDS011;36113;50.742;6.432;2022-07-22T11:35:13;21.63;;;13.30;;
50225;SDS011;36113;50.742;6.432;2022-07-22T11:37:39;23.67;;;14.13;;
50225;SDS011;36113;50.742;6.432;2022-07-22T11:40:05;21.10;;;13.47;;
50225;SDS011;36113;50.742;6.432;2022-07-22T11:42:32;22.17;;;13.70;;
50225;SDS011;36113;50.742;6.432;2022-07-22T11:44:58;24.60;;;15.30;;
50225;SDS011;36113;50.742;6.432;2022-07-22T11:47:23;18.70;;;13.03;;
50225;SDS011;36113;50.742;6.432;2022-07-22T11:49:49;22.80;;;13.93;;
50225;SDS011;36113;50.742;6.432;2022-07-22T11:52:14;20.87;;;13.87;;
50225;SDS011;36113;50.742;6.432;2022-07-22T11:54:40;22.03;;;14.10;;
50225;SDS011;36113;50.742;6.432;2022-07-22T11:57:07;21.35;;;13.52;;
50225;SDS011;36113;50.742;6.432;2022-07-22T11:59:33;21.73;;;14.40;;
50225;SDS011;36113;50.742;6.432;2022-07-22T12:02:00;31.65;;;15.73;;
50225;SDS011;36113;50.742;6.432;2022-07-22T12:06:53;25.15;;;14.45;;
50225;SDS011;36113;50.742;6.432;2022-07-22T12:11:45;21.13;;;13.80;;
50225;SDS011;36113;50.742;6.432;2022-07-22T12:16:44;21.77;;;14.57;;
50225;SDS011;36113;50.742;6.432;2022-07-22T12:19:18;24.10;;;14.07;;
50225;SDS011;36113;50.742;6.432;2022-07-22T12:21:56;21.67;;;14.73;;
50225;SDS011;36113;50.742;6.432;2022-07-22T12:24:33;23.08;;;14.07;;
50225;SDS011;36113;50.742;6.432;2022-07-22T12:27:01;23.65;;;14.35;;
50225;SDS011;36113;50.742;6.432;2022-07-22T12:31:59;23.67;;;15.00;;
50225;SDS011;36113;50.742;6.432;2022-07-22T12:42:33;20.73;;;13.18;;
50225;SDS011;36113;50.742;6.432;2022-07-22T12:45:08;20.73;;;14.27;;
50225;SDS011;36113;50.742;6.432;2022-07-22T12:50:30;21.77;;;13.65;;
50225;SDS011;36113;50.742;6.432;2022-07-22T12:53:04;21.38;;;14.32;;
50225;SDS011;36113;50.742;6.432;2022-07-22T12:55:40;21.80;;;14.17;;
50225;SDS011;36113;50.742;6.432;2022-07-22T12:58:10;19.75;;;12.95;;
50225;SDS011;36113;50.742;6.432;2022-07-22T13:00:39;23.33;;;13.35;;
50225;SDS011;36113;50.742;6.432;2022-07-22T13:03:07;19.95;;;13.18;;
50225;SDS011;36113;50.742;6.432;2022-07-22T13:05:32;19.30;;;12.33;;
50225;SDS011;36113;50.742;6.432;2022-07-22T13:08:00;20.30;;;14.88;;
50225;SDS011;36113;50.742;6.432;2022-07-22T13:12:52;19.98;;;13.88;;
50225;SDS011;36113;50.742;6.432;2022-07-22T13:15:18;20.08;;;13.40;;
50225;SDS011;36113;50.742;6.432;2022-07-22T13:17:44;23.25;;;14.32;;
50225;SDS011;36113;50.742;6.432;2022-07-22T13:20:11;19.15;;;13.15;;
50225;SDS011;36113;50.742;6.432;2022-07-22T13:22:38;21.88;;;13.90;;
50225;SDS011;36113;50.742;6.432;2022-07-22T13:25:04;23.83;;;12.45;;
50225;SDS011;36113;50.742;6.432;2022-07-22T13:27:30;20.92;;;13.65;;
50225;SDS011;36113;50.742;6.432;2022-07-22T13:29:55;20.57;;;14.43;;
50225;SDS011;36113;50.742;6.432;2022-07-22T13:32:21;21.47;;;14.43;;
50225;SDS011;36113;50.742;6.432;2022-07-22T13:34:46;20.33;;;14.13;;
50225;SDS011;36113;50.742;6.432;2022-07-22T13:37:11;20.10;;;14.03;;
50225;SDS011;36113;50.742;6.432;2022-07-22T13:39:37;20.67;;;14.27;;
50225;SDS011;36113;50.742;6.432;2022-07-22T13:42:02;19.77;;;13.57;;
50225;SDS011;36113;50.742;6.432;2022-07-22T13:44:28;20.00;;;14.70;;
50225;SDS011;36113;50.742;6.432;2022-07-22T13:46:55;19.17;;;14.27;;
50225;SDS011;36113;50.742;6.432;2022-07-22T13:49:22;29.27;;;14.70;;
50225;SDS011;36113;50.742;6.432;2022-07-22T13:51:47;23.13;;;15.37;;
50225;SDS011;36113;50.742;6.432;2022-07-22T13:54:13;19.30;;;13.47;;
50225;SDS011;36113;50.742;6.432;2022-07-22T13:56:38;20.93;;;15.73;;
50225;SDS011;36113;50.742;6.432;2022-07-22T13:59:04;19.57;;;15.00;;
50225;SDS011;36113;50.742;6.432;2022-07-22T14:01:29;24.87;;;15.60;;
50225;SDS011;36113;50.742;6.432;2022-07-22T14:03:56;22.58;;;15.10;;
50225;SDS011;36113;50.742;6.432;2022-07-22T14:06:22;21.97;;;14.30;;
50225;SDS011;36113;50.742;6.432;2022-07-22T14:08:47;20.27;;;15.33;;
50225;SDS011;36113;50.742;6.432;2022-07-22T14:11:13;22.08;;;15.68;;
50225;SDS011;36113;50.742;6.432;2022-07-22T14:13:39;21.37;;;15.67;;
50225;SDS011;36113;50.742;6.432;2022-07-22T14:16:04;23.53;;;14.97;;
50225;SDS011;36113;50.742;6.432;2022-07-22T14:18:48;21.45;;;14.57;;
50225;SDS011;36113;50.742;6.432;2022-07-22T14:21:14;23.00;;;15.17;;
50225;SDS011;36113;50.742;6.432;2022-07-22T14:23:39;19.50;;;15.37;;
50225;SDS011;36113;50.742;6.432;2022-07-22T14:26:04;17.23;;;14.63;;
50225;SDS011;36113;50.742;6.432;2022-07-22T14:28:30;18.80;;;14.43;;
50225;SDS011;36113;50.742;6.432;2022-07-22T14:30:56;21.45;;;15.27;;
50225;SDS011;36113;50.742;6.432;2022-07-22T14:33:21;24.20;;;15.77;;
50225;SDS011;36113;50.742;6.432;2022-07-22T14:35:47;22.27;;;15.30;;
50225;SDS011;36113;50.742;6.432;2022-07-22T14:38:12;19.50;;;15.27;;
50225;SDS011;36113;50.742;6.432;2022-07-22T14:40:38;29.93;;;16.63;;
50225;SDS011;36113;50.742;6.432;2022-07-22T14:43:03;26.90;;;16.13;;
50225;SDS011;36113;50.742;6.432;2022-07-22T14:45:29;20.33;;;16.23;;
50225;SDS011;36113;50.742;6.432;2022-07-22T14:47:54;21.63;;;15.77;;
50225;SDS011;36113;50.742;6.432;2022-07-22T14:50:19;20.70;;;15.90;;
50225;SDS011;36113;50.742;6.432;2022-07-22T14:52:45;22.90;;;15.53;;
50225;SDS011;36113;50.742;6.432;2022-07-22T14:55:10;20.47;;;16.20;;
50225;SDS011;36113;50.742;6.432;2022-07-22T14:57:35;22.50;;;16.93;;
50225;SDS011;36113;50.742;6.432;2022-07-22T15:00:01;24.83;;;16.80;;
50225;SDS011;36113;50.742;6.432;2022-07-22T15:02:27;22.92;;;16.83;;
50225;SDS011;36113;50.742;6.432;2022-07-22T15:04:52;22.30;;;16.33;;
50225;SDS011;36113;50.742;6.432;2022-07-22T15:07:17;19.80;;;16.07;;
50225;SDS011;36113;50.742;6.432;2022-07-22T15:09:43;26.63;;;16.70;;